LFAT/LTQ METAR and TAF weather

Enter ICAO airport designator
Station Type Date Time Source
LFAT METAR 2022/12/10 01:00 UTC NOAA

LFAT 100100Z AUTO VRB01KT CAVOK 00/M02 Q1009


Station Type Date Time Source
LFAT Decoded METAR 2022/12/10 01:00 UTC NOAA

Le Touquet, France (LFAT) 50-31N 001-37E 14M
Dec 09, 2022 - 08:00 PM EST / 2022.12.10 0100 UTC
Wind: Variable at 1 MPH (1 KT):0
Visibility: greater than 7 mile(s):0
Temperature: 32 F (0 C)
Dew Point: 28 F (-2 C)
Relative Humidity: 86%
Pressure (altimeter): 29.80 in. Hg (1009 hPa)
ob: LFAT 100100Z AUTO VRB01KT CAVOK 00/M02 Q1009
cycle: 1

Station Type Date Time Source
LFAT TAF 2018/07/14 09:21 UTC NOAA

TAF TAF LFAT 140800Z 1409/1421 09004KT 8000 NSC
BECMG 1409/1411 30010KT

Example: see airport list